Time;durP1;ratioP1;P1;durP2;ratioP2;P2;SDS_P1;SDS_P2;PMS_P1;PMS_P2;Temp;Humidity;BMP_temperature;BMP_pressure;BME280_temperature;BME280_humidity;BME280_pressure;Samples;Min_cycle;Max_cycle;Signal;HPM_P1;HPM_P2
2023/07/17 00:00:55;;;;;;;6.80;3.07;;;;;;;19.39;100.00;101452.13;5255905;28;20027;-72
2023/07/17 00:03:27;;;;;;;6.30;2.60;;;;;;;19.43;100.00;101450.84;5257386;28;20033;-72
2023/07/17 00:05:58;;;;;;;5.40;3.33;;;;;;;19.29;100.00;101434.34;5257684;28;20033;-73
2023/07/17 00:08:29;;;;;;;7.80;3.00;;;;;;;19.40;100.00;101456.44;5265851;28;20041;-72
2023/07/17 00:11:01;;;;;;;4.83;3.00;;;;;;;19.41;100.00;101452.84;5258518;28;20029;-73
2023/07/17 00:13:32;;;;;;;6.73;3.37;;;;;;;19.31;100.00;101450.97;5256904;28;20079;-72
2023/07/17 00:16:03;;;;;;;5.63;2.83;;;;;;;19.19;100.00;101444.09;5256894;28;20036;-72
2023/07/17 00:18:35;;;;;;;7.27;3.60;;;;;;;19.16;100.00;101445.22;5257907;28;20383;-73
2023/07/17 00:21:06;;;;;;;5.83;3.27;;;;;;;19.31;100.00;101455.44;5257395;28;20103;-73
2023/07/17 00:23:37;;;;;;;7.40;3.03;;;;;;;18.96;100.00;101454.84;5262859;28;20467;-72
2023/07/17 00:26:09;;;;;;;6.00;3.23;;;;;;;19.07;100.00;101465.41;5265770;28;20033;-73
2023/07/17 00:28:40;;;;;;;8.57;3.40;;;;;;;19.01;100.00;101455.28;5256375;28;20213;-73
2023/07/17 00:31:11;;;;;;;6.80;3.70;;;;;;;18.86;100.00;101453.00;5257965;28;20133;-73
2023/07/17 00:33:43;;;;;;;7.00;3.13;;;;;;;18.92;100.00;101458.75;5256101;28;20029;-73
2023/07/17 00:36:14;;;;;;;7.37;3.53;;;;;;;18.93;100.00;101460.44;5257561;28;20116;-73
2023/07/17 00:38:45;;;;;;;8.13;3.63;;;;;;;18.79;100.00;101462.47;5257822;28;21071;-73
2023/07/17 00:41:16;;;;;;;8.43;3.93;;;;;;;18.74;100.00;101467.31;5257359;28;20075;-73
2023/07/17 00:43:48;;;;;;;6.40;3.30;;;;;;;18.79;100.00;101454.50;5256066;28;20119;-73
2023/07/17 00:46:19;;;;;;;9.33;3.77;;;;;;;18.69;100.00;101461.56;5239482;28;20027;-72
2023/07/17 00:48:51;;;;;;;6.20;3.30;;;;;;;18.68;100.00;101462.53;5256648;28;20083;-72
2023/07/17 00:51:22;;;;;;;10.83;4.10;;;;;;;18.62;100.00;101470.03;5256277;28;20114;-72
2023/07/17 00:53:55;;;;;;;7.43;3.73;;;;;;;18.66;100.00;101472.44;5256965;28;20052;-72
2023/07/17 00:56:29;;;;;;;6.20;3.10;;;;;;;18.74;100.00;101485.91;5256455;28;20353;-72
2023/07/17 00:59:01;;;;;;;7.17;3.90;;;;;;;18.66;100.00;101469.78;5256604;28;20545;-72
2023/07/17 01:01:33;;;;;;;7.73;3.10;;;;;;;18.59;100.00;101472.94;5256020;28;20029;-71
2023/07/17 01:04:06;;;;;;;7.13;3.30;;;;;;;18.53;100.00;101480.59;5256939;28;20033;-72
2023/07/17 01:06:38;;;;;;;6.97;3.67;;;;;;;18.54;100.00;101472.50;5256609;28;20033;-72
2023/07/17 01:09:11;;;;;;;8.40;3.77;;;;;;;18.54;100.00;101482.25;5256502;28;20131;-72
2023/07/17 01:11:43;;;;;;;7.70;3.00;;;;;;;18.45;100.00;101462.69;5256395;28;20595;-72
2023/07/17 01:14:18;;;;;;;6.73;3.60;;;;;;;18.56;100.00;101475.03;5294752;22;20057;-72
2023/07/17 01:16:49;;;;;;;7.97;3.70;;;;;;;18.40;100.00;101471.00;5258444;28;20037;-72
2023/07/17 01:19:21;;;;;;;8.20;2.90;;;;;;;18.40;100.00;101475.50;5255729;28;20095;-72
2023/07/17 01:21:58;;;;;;;7.60;3.13;;;;;;;18.45;100.00;101481.25;5238360;28;20429;-72
2023/07/17 01:24:29;;;;;;;8.73;3.17;;;;;;;18.33;100.00;101489.25;5255355;28;20091;-72
2023/07/17 01:27:01;;;;;;;8.67;3.57;;;;;;;18.41;100.00;101496.56;5256216;28;20032;-72
2023/07/17 01:29:32;;;;;;;7.17;3.43;;;;;;;18.28;100.00;101488.78;5255633;28;20075;-72
2023/07/17 01:32:04;;;;;;;9.63;3.50;;;;;;;18.11;100.00;101487.50;5246436;28;20056;-72
2023/07/17 01:34:35;;;;;;;8.13;2.97;;;;;;;18.17;100.00;101502.91;5255947;28;20029;-72
2023/07/17 01:37:08;;;;;;;7.57;3.53;;;;;;;18.24;100.00;101498.78;5256615;28;20021;-72
2023/07/17 01:39:39;;;;;;;6.70;3.37;;;;;;;17.92;100.00;101485.50;5237721;28;20036;-72
2023/07/17 01:42:10;;;;;;;7.40;3.50;;;;;;;17.92;100.00;101494.31;5255394;28;20495;-72
2023/07/17 01:44:42;;;;;;;7.13;2.83;;;;;;;18.02;100.00;101486.44;5256015;28;20036;-73
2023/07/17 01:47:13;;;;;;;9.43;3.80;;;;;;;18.19;100.00;101487.72;5256275;28;20455;-73
2023/07/17 01:49:44;;;;;;;7.87;3.30;;;;;;;18.11;100.00;101487.50;5256194;28;20040;-73
2023/07/17 01:52:16;;;;;;;9.43;3.90;;;;;;;18.14;100.00;101485.47;5255689;28;20037;-73
2023/07/17 01:54:47;;;;;;;10.40;3.43;;;;;;;18.16;100.00;101490.63;5238265;28;20037;-72
2023/07/17 01:57:19;;;;;;;7.53;3.07;;;;;;;18.23;100.00;101486.53;5254781;28;20024;-73
2023/07/17 01:59:50;;;;;;;7.23;3.43;;;;;;;17.96;100.00;101489.59;5256155;28;20111;-72
2023/07/17 02:02:21;;;;;;;5.73;2.73;;;;;;;18.03;100.00;101493.41;5256959;28;20390;-72
2023/07/17 02:04:53;;;;;;;6.00;2.80;;;;;;;17.99;100.00;101490.19;5255592;28;20033;-72
2023/07/17 02:07:24;;;;;;;7.83;3.47;;;;;;;18.04;100.00;101486.31;5255757;28;20751;-72
2023/07/17 02:09:55;;;;;;;6.30;2.87;;;;;;;17.95;100.00;101487.91;5254957;28;20040;-72
2023/07/17 02:12:26;;;;;;;7.80;3.87;;;;;;;17.97;100.00;101491.28;5249016;28;20025;-73
2023/07/17 02:14:58;;;;;;;13.53;4.03;;;;;;;17.96;100.00;101484.31;5252904;28;20128;-72
2023/07/17 02:17:29;;;;;;;4.50;2.87;;;;;;;17.94;100.00;101491.53;5251300;28;20028;-73
2023/07/17 02:20:00;;;;;;;7.07;3.23;;;;;;;17.75;100.00;101493.03;5255939;28;20025;-73
2023/07/17 02:22:32;;;;;;;5.23;2.87;;;;;;;17.74;100.00;101499.28;5255229;28;20025;-73
2023/07/17 02:25:06;;;;;;;6.80;3.10;;;;;;;17.75;100.00;101498.31;5255022;28;20097;-73
2023/07/17 02:27:38;;;;;;;8.13;3.30;;;;;;;17.61;100.00;101502.06;5236833;28;20024;-73
2023/07/17 02:30:10;;;;;;;6.70;4.10;;;;;;;17.57;100.00;101506.78;5254427;28;20017;-73
2023/07/17 02:32:41;;;;;;;6.30;3.27;;;;;;;17.42;100.00;101504.38;5255407;28;20204;-72
2023/07/17 02:35:12;;;;;;;6.77;2.90;;;;;;;17.36;100.00;101488.97;5255558;28;20044;-73
2023/07/17 02:37:43;;;;;;;7.63;3.40;;;;;;;17.46;100.00;101504.13;5254741;28;20022;-72
2023/07/17 02:40:15;;;;;;;7.43;2.57;;;;;;;17.43;100.00;101497.28;5255404;28;20468;-73
2023/07/17 02:42:47;;;;;;;10.97;4.17;;;;;;;17.39;100.00;101503.75;5236551;28;20115;-73
2023/07/17 02:45:18;;;;;;;7.23;3.30;;;;;;;17.28;100.00;101491.34;5267681;28;20031;-73
2023/07/17 02:47:49;;;;;;;7.27;3.20;;;;;;;17.42;100.00;101507.00;5237227;28;20540;-73
2023/07/17 02:50:21;;;;;;;7.50;3.07;;;;;;;17.36;100.00;101517.25;5236882;28;20029;-72
2023/07/17 02:52:52;;;;;;;9.23;3.50;;;;;;;17.25;100.00;101503.03;5253678;28;20047;-72
2023/07/17 02:55:23;;;;;;;11.63;3.33;;;;;;;17.33;100.00;101515.66;5253844;28;20120;-73
2023/07/17 02:57:55;;;;;;;8.23;3.30;;;;;;;17.07;100.00;101522.97;5253096;28;20021;-73
2023/07/17 03:00:26;;;;;;;9.40;3.23;;;;;;;17.19;100.00;101498.25;5253286;28;20053;-73
2023/07/17 03:02:58;;;;;;;9.03;3.33;;;;;;;17.27;100.00;101521.44;5253361;28;20304;-73
2023/07/17 03:05:29;;;;;;;12.07;3.63;;;;;;;17.27;100.00;101521.44;5253329;28;20029;-72
2023/07/17 03:08:01;;;;;;;8.83;3.57;;;;;;;17.10;100.00;101523.63;5253808;28;20021;-72
2023/07/17 03:10:32;;;;;;;6.70;3.63;;;;;;;17.15;100.00;101539.97;5253193;28;20114;-73
2023/07/17 03:13:03;;;;;;;10.87;3.37;;;;;;;17.20;100.00;101541.41;5252899;28;20029;-72
2023/07/17 03:15:35;;;;;;;7.83;2.70;;;;;;;17.17;100.00;101537.22;5234751;28;20403;-72
2023/07/17 03:18:06;;;;;;;11.67;3.40;;;;;;;17.08;100.00;101537.88;5253680;28;20109;-72
2023/07/17 03:20:43;;;;;;;10.57;4.07;;;;;;;17.05;100.00;101534.50;5253482;28;20021;-72
2023/07/17 03:23:14;;;;;;;7.83;3.43;;;;;;;16.98;100.00;101537.75;5239750;28;20017;-72
2023/07/17 03:25:45;;;;;;;8.47;3.10;;;;;;;17.03;100.00;101530.31;5253241;28;20067;-72
2023/07/17 03:28:16;;;;;;;9.77;3.63;;;;;;;17.00;100.00;101535.84;5250815;28;20065;-72
2023/07/17 03:30:48;;;;;;;7.30;3.53;;;;;;;16.96;100.00;101529.94;5235875;28;20413;-72
2023/07/17 03:33:20;;;;;;;6.60;2.90;;;;;;;16.92;100.00;101533.75;5234747;28;20020;-72
2023/07/17 03:35:51;;;;;;;7.40;2.90;;;;;;;16.96;100.00;101539.66;5234919;28;20098;-72
2023/07/17 03:38:22;;;;;;;9.90;3.40;;;;;;;16.91;100.00;101538.19;5253597;28;20108;-72
2023/07/17 03:40:56;;;;;;;7.60;3.40;;;;;;;16.88;100.00;101551.66;5253182;28;20301;-72
2023/07/17 03:43:27;;;;;;;12.75;3.08;;;;;;;16.92;100.00;101542.56;5251781;28;20460;-72
2023/07/17 03:45:59;;;;;;;7.20;2.90;;;;;;;16.85;100.00;101543.13;5253483;28;20056;-72
2023/07/17 03:48:30;;;;;;;10.63;3.07;;;;;;;16.89;100.00;101542.78;5252891;28;20029;-72
2023/07/17 03:51:01;;;;;;;10.10;3.73;;;;;;;16.42;100.00;101545.38;5253312;28;20052;-72
2023/07/17 03:53:32;;;;;;;7.73;3.67;;;;;;;16.67;100.00;101543.53;5253095;28;20071;-72
2023/07/17 03:56:04;;;;;;;9.70;2.77;;;;;;;16.79;100.00;101547.09;5252724;28;20029;-72
2023/07/17 03:58:35;;;;;;;8.47;3.00;;;;;;;16.71;100.00;101560.03;5252343;28;20048;-72
2023/07/17 04:01:06;;;;;;;8.53;3.43;;;;;;;16.65;100.00;101556.88;5253298;28;20054;-72
2023/07/17 04:03:38;;;;;;;8.57;3.60;;;;;;;16.64;100.00;101555.22;5234156;28;20112;-72
2023/07/17 04:06:09;;;;;;;9.70;3.67;;;;;;;16.64;100.00;101557.84;5235261;28;20021;-72
2023/07/17 04:08:40;;;;;;;6.70;3.17;;;;;;;16.51;100.00;101554.44;5235051;28;20511;-72
2023/07/17 04:11:14;;;;;;;8.23;3.80;;;;;;;16.50;100.00;101553.59;5234430;28;20071;-72
2023/07/17 04:13:45;;;;;;;9.63;4.03;;;;;;;16.51;100.00;101560.56;5252804;28;20116;-72
2023/07/17 04:16:19;;;;;;;7.83;3.27;;;;;;;16.57;100.00;101567.19;5257150;28;20745;-72
2023/07/17 04:18:51;;;;;;;8.27;3.38;;;;;;;16.51;100.00;101563.19;5256056;28;20036;-72
2023/07/17 04:21:22;;;;;;;10.23;3.67;;;;;;;16.44;100.00;101562.81;5256789;28;20025;-72
2023/07/17 04:23:53;;;;;;;11.47;4.13;;;;;;;16.44;100.00;101562.81;5254750;28;20067;-72
2023/07/17 04:26:25;;;;;;;10.33;4.13;;;;;;;16.56;100.00;101570.81;5256661;28;20387;-72
2023/07/17 04:28:56;;;;;;;8.40;4.10;;;;;;;16.43;100.00;101560.28;5254850;28;20384;-72
2023/07/17 04:31:27;;;;;;;9.43;3.87;;;;;;;16.52;100.00;101574.63;5256235;28;20040;-72
2023/07/17 04:33:58;;;;;;;7.20;4.20;;;;;;;16.51;100.00;101572.94;5256160;28;20083;-72
2023/07/17 04:36:30;;;;;;;13.37;3.80;;;;;;;16.51;100.00;101578.25;5256444;28;20025;-72
2023/07/17 04:39:04;;;;;;;8.50;4.37;;;;;;;16.49;100.00;101574.84;5256043;28;20116;-72
2023/07/17 04:41:35;;;;;;;8.30;3.73;;;;;;;16.41;100.00;101583.34;5255374;28;20526;-72
2023/07/17 04:44:07;;;;;;;8.77;4.40;;;;;;;16.53;100.00;101577.16;5256078;28;20116;-72
2023/07/17 04:46:38;;;;;;;17.43;4.47;;;;;;;16.62;100.00;101590.66;5255357;28;20489;-72
2023/07/17 04:49:09;;;;;;;13.27;3.93;;;;;;;16.44;100.00;101583.97;5256626;28;20514;-72
2023/07/17 04:51:41;;;;;;;13.50;4.47;;;;;;;16.56;100.00;101599.91;5256073;28;20017;-72
2023/07/17 04:54:12;;;;;;;12.80;4.67;;;;;;;16.27;100.00;101585.19;5255906;28;20067;-72
2023/07/17 04:56:43;;;;;;;13.93;5.43;;;;;;;16.44;100.00;101594.53;5236882;28;20790;-71
2023/07/17 04:59:16;;;;;;;10.03;3.87;;;;;;;16.52;100.00;101601.91;5256272;28;20028;-72
2023/07/17 05:01:47;;;;;;;9.60;4.30;;;;;;;16.51;100.00;101600.22;5255229;28;20122;-72
2023/07/17 05:04:19;;;;;;;9.73;4.73;;;;;;;16.45;100.00;101596.25;5255744;28;20029;-72
2023/07/17 05:06:50;;;;;;;10.50;4.17;;;;;;;16.47;100.00;101600.56;5255130;28;20699;-72
2023/07/17 05:09:21;;;;;;;8.73;4.27;;;;;;;16.60;100.00;101603.97;5255320;28;20061;-72
2023/07/17 05:11:54;;;;;;;11.27;4.53;;;;;;;16.59;100.00;101597.03;5254678;28;20029;-72
2023/07/17 05:14:25;;;;;;;7.13;4.03;;;;;;;16.72;100.00;101614.63;5255292;28;20040;-72
2023/07/17 05:16:57;;;;;;;11.23;5.07;;;;;;;16.58;100.00;101600.63;5254980;28;20195;-72
2023/07/17 05:19:28;;;;;;;9.93;4.50;;;;;;;16.62;100.00;101617.94;5254732;28;20116;-72
2023/07/17 05:22:00;;;;;;;8.60;4.60;;;;;;;16.66;100.00;101613.28;5254852;28;20032;-72
2023/07/17 05:24:32;;;;;;;11.93;4.87;;;;;;;16.59;100.00;101607.59;5253762;28;20021;-72
2023/07/17 05:27:04;;;;;;;8.33;4.13;;;;;;;16.59;100.00;101596.16;5235437;28;20059;-72
2023/07/17 05:29:36;;;;;;;10.47;4.60;;;;;;;16.54;100.00;101600.00;5250266;28;20119;-72
2023/07/17 05:32:07;;;;;;;9.37;4.60;;;;;;;16.63;100.00;101609.06;5255040;28;20032;-72
2023/07/17 05:34:38;;;;;;;14.03;4.57;;;;;;;16.71;100.00;101621.72;5236235;28;20036;-72
2023/07/17 05:37:11;;;;;;;11.90;4.70;;;;;;;16.68;100.00;101627.22;5255427;28;20029;-72
2023/07/17 05:39:42;;;;;;;14.47;4.33;;;;;;;16.71;100.00;101627.00;5254906;28;20087;-72
2023/07/17 05:42:13;;;;;;;10.53;4.47;;;;;;;16.69;100.00;101624.47;5253857;28;20033;-72
2023/07/17 05:44:44;;;;;;;8.90;4.63;;;;;;;16.76;100.00;101634.59;5253968;28;20098;-72
2023/07/17 05:47:16;;;;;;;11.33;5.17;;;;;;;16.66;100.00;101614.13;5254596;28;20518;-72
2023/07/17 05:49:47;;;;;;;12.90;4.80;;;;;;;16.80;100.00;101636.06;5254944;28;20422;-72
2023/07/17 05:52:18;;;;;;;11.83;5.73;;;;;;;16.85;100.00;101628.63;5254842;28;20071;-72
2023/07/17 05:54:50;;;;;;;11.43;4.90;;;;;;;16.95;100.00;101641.19;5253882;28;20086;-72
2023/07/17 05:57:21;;;;;;;11.33;5.30;;;;;;;16.91;100.00;101641.38;5235050;28;20033;-72
2023/07/17 05:59:52;;;;;;;12.77;5.87;;;;;;;16.88;100.00;101636.31;5254372;28;20391;-72
2023/07/17 06:02:24;;;;;;;9.93;5.63;;;;;;;16.88;100.00;101646.91;5236279;28;20032;-72
2023/07/17 06:04:55;;;;;;;16.27;5.63;;;;;;;16.97;100.00;101648.03;5254700;28;20036;-72
2023/07/17 06:07:28;;;;;;;9.23;5.23;;;;;;;16.96;100.00;101642.84;5253533;28;20037;-72
2023/07/17 06:09:59;;;;;;;11.80;5.97;;;;;;;16.98;100.00;101643.59;5255047;28;20392;-71
2023/07/17 06:12:31;;;;;;;11.83;5.23;;;;;;;16.95;100.00;101639.34;5253471;28;20021;-71
2023/07/17 06:15:03;;;;;;;16.13;6.07;;;;;;;17.15;100.00;101658.22;5254236;28;20049;-72
2023/07/17 06:17:35;;;;;;;9.07;4.67;;;;;;;17.10;100.00;101652.44;5253948;28;20440;-71
2023/07/17 06:20:08;;;;;;;11.67;5.57;;;;;;;17.20;100.00;101657.88;5254721;28;20036;-72
2023/07/17 06:22:40;;;;;;;11.80;5.83;;;;;;;17.21;100.00;101662.22;5253695;28;20495;-73
2023/07/17 06:25:11;;;;;;;17.40;5.60;;;;;;;17.26;100.00;101663.53;5254625;28;20025;-74
2023/07/17 06:27:42;;;;;;;12.20;5.60;;;;;;;17.32;100.00;101674.63;5253172;28;20071;-71
2023/07/17 06:30:14;;;;;;;11.40;6.17;;;;;;;17.38;100.00;101669.75;5258865;28;20115;-71
2023/07/17 06:32:45;;;;;;;15.57;5.67;;;;;;;17.41;100.00;101669.50;5256440;28;20037;-71
2023/07/17 06:35:17;;;;;;;12.07;5.67;;;;;;;17.50;100.00;101673.25;5236179;28;20025;-71
2023/07/17 06:37:48;;;;;;;16.87;6.40;;;;;;;17.58;100.00;101677.94;5253460;28;20064;-71
2023/07/17 06:40:19;;;;;;;10.87;6.00;;;;;;;17.64;100.00;101671.34;5236686;28;20108;-71
2023/07/17 06:42:51;;;;;;;14.60;5.73;;;;;;;17.72;100.00;101678.69;5252275;28;20040;-71
2023/07/17 06:45:22;;;;;;;14.30;6.33;;;;;;;17.72;100.00;101676.88;5236156;28;20021;-71
2023/07/17 06:47:53;;;;;;;10.20;6.13;;;;;;;17.75;100.00;101673.97;5254157;28;20025;-71
2023/07/17 06:50:24;;;;;;;15.83;7.10;;;;;;;17.78;100.00;101686.16;5253850;28;20114;-71
2023/07/17 06:52:56;;;;;;;15.77;6.07;;;;;;;17.95;100.00;101684.00;5253645;28;20025;-71
2023/07/17 06:55:27;;;;;;;12.13;5.40;;;;;;;18.06;100.00;101686.66;5251809;28;20124;-72
2023/07/17 06:57:59;;;;;;;13.90;5.57;;;;;;;18.14;100.00;101692.22;5252382;28;20372;-72
2023/07/17 07:00:30;;;;;;;11.73;5.87;;;;;;;18.28;100.00;101690.28;5253127;28;20031;-72
2023/07/17 07:03:01;;;;;;;13.83;5.77;;;;;;;18.47;100.00;101691.44;5253760;28;20484;-71
2023/07/17 07:05:33;;;;;;;14.87;5.17;;;;;;;18.52;99.24;101688.44;5252650;28;20025;-72
2023/07/17 07:08:04;;;;;;;10.87;5.70;;;;;;;18.60;99.03;101692.16;5254206;28;20021;-72
2023/07/17 07:10:35;;;;;;;13.70;5.93;;;;;;;18.77;99.52;101697.91;5253013;28;20021;-72
2023/07/17 07:13:07;;;;;;;9.83;5.07;;;;;;;19.07;96.11;101701.66;5252298;28;20533;-72
2023/07/17 07:15:39;;;;;;;13.27;5.17;;;;;;;19.14;94.09;101701.16;5231221;28;20068;-72
2023/07/17 07:18:11;;;;;;;13.93;5.80;;;;;;;19.13;92.80;101710.94;5232531;28;20455;-72
2023/07/17 07:20:43;;;;;;;8.47;4.67;;;;;;;19.37;91.77;101706.38;5230934;28;20171;-72
2023/07/17 07:23:15;;;;;;;10.93;5.90;;;;;;;19.75;88.94;101704.06;5231552;28;20037;-72
2023/07/17 07:25:47;;;;;;;9.67;4.30;;;;;;;19.82;86.65;101699.94;5231754;28;20582;-72
2023/07/17 07:28:19;;;;;;;12.37;6.03;;;;;;;19.87;86.76;101715.47;5231139;28;20483;-72
2023/07/17 07:30:56;;;;;;;13.67;4.80;;;;;;;20.76;85.11;101702.47;5232293;28;20517;-72
2023/07/17 07:33:27;;;;;;;14.93;5.63;;;;;;;20.77;82.96;101712.97;5238403;28;20021;-72
2023/07/17 07:36:02;;;;;;;12.00;4.80;;;;;;;20.86;77.21;101713.09;5232634;28;20026;-72
2023/07/17 07:38:33;;;;;;;;;;;;;;;21.59;75.65;101721.66;5222125;28;20013;-72
2023/07/17 07:41:04;;;;;;;12.20;4.67;;;;;;;21.65;73.36;101718.41;5231027;28;19957;-72
2023/07/17 07:43:35;;;;;;;14.30;5.23;;;;;;;21.44;71.28;101723.91;5232838;28;20041;-72
2023/07/17 07:46:07;;;;;;;9.23;4.10;;;;;;;21.36;70.02;101736.16;5228494;28;20080;-72
2023/07/17 07:48:38;;;;;;;9.88;4.10;;;;;;;21.72;68.82;101734.66;5232731;28;20079;-72
2023/07/17 07:51:09;;;;;;;9.18;4.65;;;;;;;21.52;70.59;101740.06;5236071;28;20472;-73
2023/07/17 07:53:41;;;;;;;11.63;4.72;;;;;;;21.51;70.49;101738.34;5231242;28;20064;-73
2023/07/17 07:56:12;;;;;;;11.63;4.43;;;;;;;21.78;67.10;101739.44;5236645;28;20025;-71
2023/07/17 07:58:43;;;;;;;8.32;4.20;;;;;;;22.30;66.53;101743.47;5237920;28;20556;-70
2023/07/17 08:01:15;;;;;;;10.70;4.32;;;;;;;22.43;65.80;101732.44;5237290;28;20041;-69
2023/07/17 08:03:46;;;;;;;11.82;4.80;;;;;;;23.00;62.95;101745.72;5236260;28;20096;-69
2023/07/17 08:06:17;;;;;;;10.93;4.90;;;;;;;23.44;60.58;101735.06;5237675;28;20132;-70
2023/07/17 08:08:48;;;;;;;12.18;4.50;;;;;;;23.58;57.73;101740.84;5236259;28;20025;-71
2023/07/17 08:11:22;;;;;;;9.80;4.10;;;;;;;23.71;54.98;101740.44;5236347;28;20033;-70
2023/07/17 08:13:53;;;;;;;8.90;4.32;;;;;;;23.27;55.54;101751.94;5236071;28;20132;-72
2023/07/17 08:16:24;;;;;;;18.55;4.43;;;;;;;23.55;54.31;101754.53;5252741;28;20127;-70
2023/07/17 08:18:55;;;;;;;13.02;4.50;;;;;;;24.15;56.17;101757.38;5251120;28;20459;-70
2023/07/17 08:21:27;;;;;;;9.73;4.43;;;;;;;24.37;51.92;101752.47;5255348;28;20035;-70
2023/07/17 08:23:58;;;;;;;10.00;3.72;;;;;;;24.27;51.01;101739.22;5257804;28;20537;-70
2023/07/17 08:26:29;;;;;;;9.32;4.25;;;;;;;24.28;51.78;101749.78;5237722;28;20027;-71
2023/07/17 08:29:02;;;;;;;9.55;4.43;;;;;;;24.08;53.03;101762.53;5257844;28;20029;-70
2023/07/17 08:31:34;;;;;;;14.73;5.13;;;;;;;24.48;50.34;101756.69;5257518;28;20356;-70
2023/07/17 08:34:06;;;;;;;10.40;3.78;;;;;;;25.15;49.85;101752.31;5239520;28;20037;-74
2023/07/17 08:36:37;;;;;;;8.32;4.60;;;;;;;25.73;45.28;101754.97;5256922;28;20364;-69
2023/07/17 08:39:09;;;;;;;10.15;3.80;;;;;;;25.67;45.10;101760.16;5239507;28;20031;-71
2023/07/17 08:41:45;;;;;;;8.68;4.68;;;;;;;25.83;44.29;101753.94;5256092;28;20382;-69
2023/07/17 08:44:18;;;;;;;12.18;4.47;;;;;;;26.33;43.67;101759.09;5255133;28;20138;-71
2023/07/17 08:46:51;;;;;;;8.07;4.20;;;;;;;25.70;43.18;101759.81;5254054;28;20031;-71
2023/07/17 08:49:25;;;;;;;6.35;3.58;;;;;;;26.50;43.39;101770.63;5256974;28;20025;-74
2023/07/17 08:51:59;;;;;;;11.18;3.33;;;;;;;26.71;40.65;101758.41;5256357;28;20048;-74
2023/07/17 08:54:30;;;;;;;8.45;4.10;;;;;;;26.89;41.12;101757.28;5257529;28;20029;-79
2023/07/17 08:57:03;;;;;;;7.93;3.47;;;;;;;27.13;41.21;101766.22;5255668;28;20035;-76
2023/07/17 08:59:35;;;;;;;10.90;3.75;;;;;;;27.25;40.43;101756.69;5255534;28;20029;-76
2023/07/17 09:02:07;;;;;;;6.22;3.90;;;;;;;27.74;40.21;101754.56;5253017;28;20017;-77
2023/07/17 09:04:39;;;;;;;8.60;3.45;;;;;;;28.40;37.69;101765.56;5254595;28;20383;-75
2023/07/17 09:07:10;;;;;;;8.73;3.83;;;;;;;28.71;36.76;101764.44;5255446;28;20033;-77
2023/07/17 09:09:41;;;;;;;8.75;3.67;;;;;;;28.93;36.44;101756.38;5255775;28;20040;-76
2023/07/17 09:12:17;;;;;;;8.30;3.50;;;;;;;28.87;36.24;101762.53;5252029;28;20028;-79
2023/07/17 09:14:48;;;;;;;6.28;3.20;;;;;;;28.64;35.83;101755.47;5253837;28;20067;-77
2023/07/17 09:17:20;;;;;;;6.45;2.92;;;;;;;28.50;36.28;101757.19;5255547;28;20496;-77
2023/07/17 09:19:51;;;;;;;7.22;3.00;;;;;;;28.59;34.85;101760.59;5254813;28;20048;-76
2023/07/17 09:22:22;;;;;;;8.85;3.65;;;;;;;28.69;35.25;101766.53;5254298;28;20028;-77
2023/07/17 09:24:54;;;;;;;6.82;2.70;;;;;;;29.16;34.23;101766.16;5254553;28;20043;-77
2023/07/17 09:27:25;;;;;;;5.40;3.22;;;;;;;29.62;34.30;101768.59;5235348;28;20739;-77
2023/07/17 09:29:56;;;;;;;7.43;2.90;;;;;;;29.91;32.48;101772.91;5255399;28;20053;-75
2023/07/17 09:32:28;;;;;;;9.88;3.78;;;;;;;30.50;31.68;101761.72;5254734;28;20024;-75
2023/07/17 09:35:06;;;;;;;5.72;2.80;;;;;;;31.30;32.03;101780.13;5255502;28;20025;-78
2023/07/17 09:37:43;;;;;;;4.25;2.90;;;;;;;31.55;30.87;101771.38;5255667;28;20079;-79
2023/07/17 09:40:17;;;;;;;7.28;2.88;;;;;;;31.45;30.24;101782.63;5256626;28;20140;-74
2023/07/17 09:42:54;;;;;;;6.28;2.58;;;;;;;30.63;30.96;101777.13;5254705;28;20464;-79
2023/07/17 09:45:26;;;;;;;5.25;3.13;;;;;;;30.02;31.29;101782.28;5256172;28;20032;-79
2023/07/17 09:47:59;;;;;;;6.83;2.73;;;;;;;29.94;32.15;101774.34;5238436;28;20025;-80
2023/07/17 09:50:30;;;;;;;6.80;3.13;;;;;;;29.82;31.49;101774.09;5255713;28;20468;-78
2023/07/17 09:53:05;;;;;;;6.40;2.95;;;;;;;30.31;31.21;101779.53;5256281;28;20076;-76
2023/07/17 09:55:39;;;;;;;7.35;3.28;;;;;;;30.50;30.60;101779.78;5255045;28;20575;-73
2023/07/17 09:58:12;;;;;;;9.40;2.50;;;;;;;30.91;29.88;101789.66;5256038;28;20062;-75
2023/07/17 10:00:43;;;;;;;8.23;3.13;;;;;;;30.40;29.54;101781.03;5255726;28;20025;-75
2023/07/17 10:03:18;;;;;;;4.93;2.20;;;;;;;29.82;30.09;101779.47;5256153;28;20546;-80
2023/07/17 10:05:51;;;;;;;6.45;2.38;;;;;;;30.37;29.84;101778.72;5255229;28;20033;-79
2023/07/17 10:08:23;;;;;;;6.80;2.80;;;;;;;31.05;29.03;101783.44;5256207;28;20447;-77
2023/07/17 10:10:55;;;;;;;7.93;3.05;;;;;;;31.10;28.40;101779.09;5255222;28;20040;-79
2023/07/17 10:13:26;;;;;;;5.20;3.00;;;;;;;31.07;28.08;101784.88;5261775;28;20021;-72
2023/07/17 10:15:58;;;;;;;6.28;2.90;;;;;;;31.43;28.34;101777.44;5256186;28;20041;-77
2023/07/17 10:18:30;;;;;;;5.93;2.63;;;;;;;31.56;28.27;101781.16;5255517;28;20151;-77
2023/07/17 10:21:04;;;;;;;7.80;3.00;;;;;;;30.91;27.82;101786.16;5255806;28;20479;-75
2023/07/17 10:23:35;;;;;;;5.82;3.00;;;;;;;30.36;28.92;101762.69;5255013;28;20025;-75
2023/07/17 10:26:08;;;;;;;7.72;3.08;;;;;;;30.49;29.91;101783.53;5254743;28;20028;-77
2023/07/17 10:28:41;;;;;;;6.43;2.90;;;;;;;30.86;29.28;101789.47;5237685;28;20027;-73
2023/07/17 10:31:18;;;;;;;7.22;3.33;;;;;;;31.04;28.98;101790.72;5251305;28;20094;-79
2023/07/17 10:33:58;;;;;;;4.50;2.53;;;;;;;30.51;29.02;101776.06;5254907;28;20036;-72
2023/07/17 10:36:43;;;;;;;6.90;3.03;;;;;;;30.29;30.03;101784.31;5254871;28;20027;-79
2023/07/17 10:39:19;;;;;;;7.00;2.90;;;;;;;29.79;30.24;101769.09;5255208;28;20025;-77
2023/07/17 10:41:51;;;;;;;6.70;3.53;;;;;;;30.33;29.52;101777.47;5253788;28;20033;-75
2023/07/17 10:44:22;;;;;;;5.10;2.70;;;;;;;31.03;29.68;101775.53;5255098;28;20040;-77
2023/07/17 10:46:54;;;;;;;9.82;3.03;;;;;;;31.60;29.17;101772.41;5249714;28;20029;-76
2023/07/17 10:49:25;;;;;;;8.02;3.38;;;;;;;32.25;28.91;101775.31;5246233;28;20033;-74
2023/07/17 10:51:56;;;;;;;9.55;3.63;;;;;;;32.27;27.13;101769.69;5254383;28;20055;-73
2023/07/17 10:54:28;;;;;;;6.90;3.30;;;;;;;32.00;26.37;101776.06;5254289;28;20021;-76
2023/07/17 10:56:59;;;;;;;11.50;3.83;;;;;;;31.93;27.54;101775.22;5253809;28;20025;-74
2023/07/17 10:59:30;;;;;;;8.30;3.13;;;;;;;32.21;27.28;101776.78;5254211;28;20027;-78
2023/07/17 11:02:02;;;;;;;4.57;3.10;;;;;;;31.73;26.50;101776.94;5254476;28;20025;-77
2023/07/17 11:04:34;;;;;;;6.78;2.97;;;;;;;31.66;26.40;101775.31;5236091;28;20063;-77
2023/07/17 11:07:08;;;;;;;5.22;2.58;;;;;;;31.86;27.29;101769.81;5254758;28;20047;-78
2023/07/17 11:09:43;;;;;;;7.93;3.15;;;;;;;31.97;26.68;101765.63;5253810;28;20033;-77
2023/07/17 11:12:16;;;;;;;10.00;3.15;;;;;;;31.95;27.27;101765.84;5254031;28;20632;-76
2023/07/17 11:14:51;;;;;;;4.55;3.03;;;;;;;31.72;27.01;101772.56;5253875;28;20041;-72
2023/07/17 11:17:24;;;;;;;4.82;3.10;;;;;;;31.72;26.78;101783.41;5253676;28;20384;-79
2023/07/17 11:20:05;;;;;;;5.85;3.53;;;;;;;31.03;28.97;101779.06;5254370;28;20060;-75
2023/07/17 11:22:38;;;;;;;7.38;3.50;;;;;;;30.91;28.16;101775.34;5254168;28;20107;-78
2023/07/17 11:25:12;;;;;;;4.53;2.92;;;;;;;30.53;28.57;101768.56;5257541;28;20021;-76
2023/07/17 11:27:44;;;;;;;5.13;3.00;;;;;;;30.47;29.66;101775.63;5257229;28;20033;-78
2023/07/17 11:30:20;;;;;;;7.78;3.60;;;;;;;30.53;29.27;101779.38;5255958;28;20033;-75
2023/07/17 11:32:57;;;;;;;7.10;4.10;;;;;;;30.41;29.68;101771.03;5250139;28;20063;-77
2023/07/17 11:35:41;;;;;;;6.63;4.07;;;;;;;30.06;30.34;101785.41;5258679;28;20060;-72
2023/07/17 11:38:15;;;;;;;8.85;3.63;;;;;;;29.50;30.74;101770.97;5247826;28;20418;-77